sensor_id;sensor_type;location;lat;lon;timestamp;pressure;altitude;pressure_sealevel;temperature;humidity
17525;BME280;40431;52.198;9.902;2023-09-19T00:01:29;99763.25;;;16.38;100.00
17525;BME280;40431;52.198;9.902;2023-09-19T00:03:58;99748.81;;;16.45;100.00
17525;BME280;40431;52.198;9.902;2023-09-19T00:06:25;99751.56;;;16.45;100.00
17525;BME280;40431;52.198;9.902;2023-09-19T00:08:56;99751.56;;;16.45;100.00
17525;BME280;40431;52.198;9.902;2023-09-19T00:11:24;99746.94;;;16.46;100.00
17525;BME280;40431;52.198;9.902;2023-09-19T00:13:52;99758.44;;;16.49;100.00
17525;BME280;40431;52.198;9.902;2023-09-19T00:16:18;99755.16;;;16.46;100.00
17525;BME280;40431;52.198;9.902;2023-09-19T00:18:45;99763.50;;;16.44;100.00
17525;BME280;40431;52.198;9.902;2023-09-19T00:21:13;99770.16;;;16.42;100.00
17525;BME280;40431;52.198;9.902;2023-09-19T00:23:40;99773.34;;;16.37;100.00
17525;BME280;40431;52.198;9.902;2023-09-19T00:26:07;99773.50;;;16.35;100.00
17525;BME280;40431;52.198;9.902;2023-09-19T00:28:33;99786.03;;;16.38;100.00
17525;BME280;40431;52.198;9.902;2023-09-19T00:31:00;99786.47;;;16.33;100.00
17525;BME280;40431;52.198;9.902;2023-09-19T00:33:27;99782.72;;;16.34;100.00
17525;BME280;40431;52.198;9.902;2023-09-19T00:35:56;99772.09;;;16.31;100.00
17525;BME280;40431;52.198;9.902;2023-09-19T00:38:24;99773.09;;;16.30;100.00
17525;BME280;40431;52.198;9.902;2023-09-19T00:40:53;99773.94;;;16.31;100.00
17525;BME280;40431;52.198;9.902;2023-09-19T00:43:20;99782.88;;;16.33;100.00
17525;BME280;40431;52.198;9.902;2023-09-19T00:45:50;99779.56;;;16.29;100.00
17525;BME280;40431;52.198;9.902;2023-09-19T00:48:18;99776.97;;;16.28;100.00
17525;BME280;40431;52.198;9.902;2023-09-19T00:50:46;99779.09;;;16.34;100.00
17525;BME280;40431;52.198;9.902;2023-09-19T00:53:14;99776.53;;;16.32;100.00
17525;BME280;40431;52.198;9.902;2023-09-19T00:55:45;99781.72;;;16.35;100.00
17525;BME280;40431;52.198;9.902;2023-09-19T00:58:12;99778.81;;;16.37;100.00
17525;BME280;40431;52.198;9.902;2023-09-19T01:00:38;99784.56;;;16.34;100.00
17525;BME280;40431;52.198;9.902;2023-09-19T01:03:07;99786.91;;;16.29;100.00
17525;BME280;40431;52.198;9.902;2023-09-19T01:05:34;99783.16;;;16.30;100.00
17525;BME280;40431;52.198;9.902;2023-09-19T01:08:01;99786.19;;;16.27;100.00
17525;BME280;40431;52.198;9.902;2023-09-19T01:10:28;99787.78;;;16.29;100.00
17525;BME280;40431;52.198;9.902;2023-09-19T01:13:03;99784.63;;;16.24;100.00
17525;BME280;40431;52.198;9.902;2023-09-19T01:15:40;99798.13;;;16.26;100.00
17525;BME280;40431;52.198;9.902;2023-09-19T01:18:16;99805.91;;;16.30;100.00
17525;BME280;40431;52.198;9.902;2023-09-19T01:20:53;99808.06;;;16.27;100.00
17525;BME280;40431;52.198;9.902;2023-09-19T01:23:29;99802.19;;;16.22;100.00
17525;BME280;40431;52.198;9.902;2023-09-19T01:26:07;99806.34;;;16.26;100.00
17525;BME280;40431;52.198;9.902;2023-09-19T01:28:45;99803.50;;;16.17;100.00
17525;BME280;40431;52.198;9.902;2023-09-19T01:31:21;99813.44;;;16.18;100.00
17525;BME280;40431;52.198;9.902;2023-09-19T01:33:56;99808.28;;;16.15;100.00
17525;BME280;40431;52.198;9.902;2023-09-19T01:36:30;99814.00;;;16.22;100.00
17525;BME280;40431;52.198;9.902;2023-09-19T01:38:59;99818.91;;;16.18;100.00
17525;BME280;40431;52.198;9.902;2023-09-19T01:41:39;99828.13;;;16.17;100.00
17525;BME280;40431;52.198;9.902;2023-09-19T01:44:13;99819.06;;;16.17;100.00
17525;BME280;40431;52.198;9.902;2023-09-19T01:46:44;99831.00;;;16.16;100.00
17525;BME280;40431;52.198;9.902;2023-09-19T01:49:22;99831.56;;;16.19;100.00
17525;BME280;40431;52.198;9.902;2023-09-19T01:52:09;99833.00;;;16.24;100.00
17525;BME280;40431;52.198;9.902;2023-09-19T01:54:45;99835.00;;;16.22;100.00
17525;BME280;40431;52.198;9.902;2023-09-19T01:57:16;99839.16;;;16.26;100.00
17525;BME280;40431;52.198;9.902;2023-09-19T01:59:48;99841.47;;;16.30;100.00
17525;BME280;40431;52.198;9.902;2023-09-19T02:02:20;99837.16;;;16.28;100.00
17525;BME280;40431;52.198;9.902;2023-09-19T02:04:47;99841.91;;;16.26;100.00
17525;BME280;40431;52.198;9.902;2023-09-19T02:07:15;99843.34;;;16.30;100.00
17525;BME280;40431;52.198;9.902;2023-09-19T02:09:42;99842.19;;;16.32;100.00
17525;BME280;40431;52.198;9.902;2023-09-19T02:12:09;99844.38;;;16.29;100.00
17525;BME280;40431;52.198;9.902;2023-09-19T02:14:35;99851.53;;;16.30;100.00
17525;BME280;40431;52.198;9.902;2023-09-19T02:17:03;99858.44;;;16.34;100.00
17525;BME280;40431;52.198;9.902;2023-09-19T02:19:33;99862.06;;;16.34;100.00
17525;BME280;40431;52.198;9.902;2023-09-19T02:22:00;99860.00;;;16.36;100.00
17525;BME280;40431;52.198;9.902;2023-09-19T02:24:28;99861.31;;;16.42;100.00
17525;BME280;40431;52.198;9.902;2023-09-19T02:26:55;99863.91;;;16.34;100.00
17525;BME280;40431;52.198;9.902;2023-09-19T02:29:22;99866.06;;;16.40;100.00
17525;BME280;40431;52.198;9.902;2023-09-19T02:31:48;99863.75;;;16.45;100.00
17525;BME280;40431;52.198;9.902;2023-09-19T02:34:15;99867.47;;;16.44;100.00
17525;BME280;40431;52.198;9.902;2023-09-19T02:36:44;99861.59;;;16.49;100.00
17525;BME280;40431;52.198;9.902;2023-09-19T02:39:11;99871.94;;;16.45;100.00
17525;BME280;40431;52.198;9.902;2023-09-19T02:41:38;99867.94;;;16.40;100.00
17525;BME280;40431;52.198;9.902;2023-09-19T02:44:07;99869.22;;;16.45;100.00
17525;BME280;40431;52.198;9.902;2023-09-19T02:46:33;99862.47;;;16.40;100.00
17525;BME280;40431;52.198;9.902;2023-09-19T02:49:01;99870.84;;;16.38;100.00
17525;BME280;40431;52.198;9.902;2023-09-19T02:51:30;99859.47;;;16.33;100.00
17525;BME280;40431;52.198;9.902;2023-09-19T02:53:58;99864.66;;;16.26;100.00
17525;BME280;40431;52.198;9.902;2023-09-19T02:56:25;99863.53;;;16.19;100.00
17525;BME280;40431;52.198;9.902;2023-09-19T02:58:51;99861.50;;;16.21;100.00
17525;BME280;40431;52.198;9.902;2023-09-19T03:01:18;99859.63;;;16.22;100.00
17525;BME280;40431;52.198;9.902;2023-09-19T03:03:45;99860.09;;;16.17;100.00
17525;BME280;40431;52.198;9.902;2023-09-19T03:06:11;99860.94;;;16.17;100.00
17525;BME280;40431;52.198;9.902;2023-09-19T03:08:38;99858.34;;;16.16;100.00
17525;BME280;40431;52.198;9.902;2023-09-19T03:11:08;99862.53;;;16.10;100.00
17525;BME280;40431;52.198;9.902;2023-09-19T03:13:36;99866.72;;;16.14;100.00
17525;BME280;40431;52.198;9.902;2023-09-19T03:16:03;99867.28;;;16.08;100.00
17525;BME280;40431;52.198;9.902;2023-09-19T03:18:31;99871.91;;;16.08;100.00
17525;BME280;40431;52.198;9.902;2023-09-19T03:20:57;99869.91;;;16.00;100.00
17525;BME280;40431;52.198;9.902;2023-09-19T03:23:25;99877.09;;;16.01;100.00
17525;BME280;40431;52.198;9.902;2023-09-19T03:25:52;99885.13;;;15.93;100.00
17525;BME280;40431;52.198;9.902;2023-09-19T03:28:20;99879.97;;;15.90;100.00
17525;BME280;40431;52.198;9.902;2023-09-19T03:30:57;99882.00;;;15.88;100.00
17525;BME280;40431;52.198;9.902;2023-09-19T03:33:24;99888.59;;;15.95;100.00
17525;BME280;40431;52.198;9.902;2023-09-19T03:35:52;99886.00;;;15.93;100.00
17525;BME280;40431;52.198;9.902;2023-09-19T03:38:19;99895.81;;;15.96;100.00
17525;BME280;40431;52.198;9.902;2023-09-19T03:40:46;99893.34;;;15.93;100.00
17525;BME280;40431;52.198;9.902;2023-09-19T03:43:13;99900.09;;;15.89;100.00
17525;BME280;40431;52.198;9.902;2023-09-19T03:45:41;99890.06;;;15.89;100.00
17525;BME280;40431;52.198;9.902;2023-09-19T03:48:08;99895.47;;;15.79;100.00
17525;BME280;40431;52.198;9.902;2023-09-19T03:50:35;99898.94;;;15.72;100.00
17525;BME280;40431;52.198;9.902;2023-09-19T03:53:01;99893.59;;;15.70;100.00
17525;BME280;40431;52.198;9.902;2023-09-19T03:55:28;99905.25;;;15.72;100.00
17525;BME280;40431;52.198;9.902;2023-09-19T03:57:55;99907.13;;;15.62;100.00
17525;BME280;40431;52.198;9.902;2023-09-19T04:00:21;99915.31;;;15.62;100.00
17525;BME280;40431;52.198;9.902;2023-09-19T04:02:51;99925.69;;;15.58;100.00
17525;BME280;40431;52.198;9.902;2023-09-19T04:05:18;99925.38;;;15.61;100.00
17525;BME280;40431;52.198;9.902;2023-09-19T04:07:45;99927.69;;;15.66;100.00
17525;BME280;40431;52.198;9.902;2023-09-19T04:10:11;99931.28;;;15.66;100.00
17525;BME280;40431;52.198;9.902;2023-09-19T04:12:40;99936.91;;;15.65;100.00
17525;BME280;40431;52.198;9.902;2023-09-19T04:15:07;99937.91;;;15.64;100.00
17525;BME280;40431;52.198;9.902;2023-09-19T04:17:38;99941.78;;;15.61;100.00
17525;BME280;40431;52.198;9.902;2023-09-19T04:20:07;99944.22;;;15.64;100.00
17525;BME280;40431;52.198;9.902;2023-09-19T04:22:34;99939.66;;;15.65;100.00
17525;BME280;40431;52.198;9.902;2023-09-19T04:25:00;99941.34;;;15.66;100.00
17525;BME280;40431;52.198;9.902;2023-09-19T04:27:27;99939.66;;;15.65;100.00
17525;BME280;40431;52.198;9.902;2023-09-19T04:29:53;99936.31;;;15.61;100.00
17525;BME280;40431;52.198;9.902;2023-09-19T04:32:28;99934.44;;;15.62;100.00
17525;BME280;40431;52.198;9.902;2023-09-19T04:34:54;99943.22;;;15.56;100.00
17525;BME280;40431;52.198;9.902;2023-09-19T04:37:26;99932.41;;;15.44;100.00
17525;BME280;40431;52.198;9.902;2023-09-19T04:39:54;99942.59;;;15.42;100.00
17525;BME280;40431;52.198;9.902;2023-09-19T04:42:20;99940.72;;;15.33;100.00
17525;BME280;40431;52.198;9.902;2023-09-19T04:44:47;99940.59;;;15.34;100.00
17525;BME280;40431;52.198;9.902;2023-09-19T04:47:14;99946.50;;;15.40;100.00
17525;BME280;40431;52.198;9.902;2023-09-19T04:49:41;99941.59;;;15.43;100.00
17525;BME280;40431;52.198;9.902;2023-09-19T04:52:07;99943.75;;;15.40;100.00
17525;BME280;40431;52.198;9.902;2023-09-19T04:54:35;99952.25;;;15.46;100.00
17525;BME280;40431;52.198;9.902;2023-09-19T04:57:02;99965.31;;;15.43;100.00
17525;BME280;40431;52.198;9.902;2023-09-19T04:59:31;99965.88;;;15.36;100.00
17525;BME280;40431;52.198;9.902;2023-09-19T05:01:58;99969.88;;;15.32;100.00
17525;BME280;40431;52.198;9.902;2023-09-19T05:04:24;99973.38;;;15.34;100.00
17525;BME280;40431;52.198;9.902;2023-09-19T05:06:51;99977.78;;;15.35;100.00
17525;BME280;40431;52.198;9.902;2023-09-19T05:09:17;99981.41;;;15.36;100.00
17525;BME280;40431;52.198;9.902;2023-09-19T05:11:46;99991.34;;;15.37;100.00
17525;BME280;40431;52.198;9.902;2023-09-19T05:14:13;99981.69;;;15.33;100.00
17525;BME280;40431;52.198;9.902;2023-09-19T05:16:39;99979.97;;;15.32;100.00
17525;BME280;40431;52.198;9.902;2023-09-19T05:19:06;99990.28;;;15.28;100.00
17525;BME280;40431;52.198;9.902;2023-09-19T05:21:35;99981.50;;;15.25;100.00
17525;BME280;40431;52.198;9.902;2023-09-19T05:24:01;99989.84;;;15.23;100.00
17525;BME280;40431;52.198;9.902;2023-09-19T05:26:27;99993.31;;;15.25;100.00
17525;BME280;40431;52.198;9.902;2023-09-19T05:28:55;100008.81;;;15.25;100.00
17525;BME280;40431;52.198;9.902;2023-09-19T05:31:23;100010.25;;;15.29;100.00
17525;BME280;40431;52.198;9.902;2023-09-19T05:33:49;100011.75;;;15.33;100.00
17525;BME280;40431;52.198;9.902;2023-09-19T05:36:16;100018.16;;;15.22;100.00
17525;BME280;40431;52.198;9.902;2023-09-19T05:38:43;100025.19;;;15.25;100.00
17525;BME280;40431;52.198;9.902;2023-09-19T05:41:09;100036.88;;;15.27;100.00
17525;BME280;40431;52.198;9.902;2023-09-19T05:43:39;100020.75;;;15.24;100.00
17525;BME280;40431;52.198;9.902;2023-09-19T05:46:07;100019.28;;;15.19;100.00
17525;BME280;40431;52.198;9.902;2023-09-19T05:48:34;100007.38;;;15.20;100.00
17525;BME280;40431;52.198;9.902;2023-09-19T05:51:01;100021.31;;;15.17;100.00
17525;BME280;40431;52.198;9.902;2023-09-19T05:53:27;100024.44;;;15.13;100.00
17525;BME280;40431;52.198;9.902;2023-09-19T05:55:55;100028.50;;;15.18;100.00
17525;BME280;40431;52.198;9.902;2023-09-19T05:58:21;100033.53;;;15.23;100.00
17525;BME280;40431;52.198;9.902;2023-09-19T06:00:48;100040.13;;;15.20;100.00
17525;BME280;40431;52.198;9.902;2023-09-19T06:03:15;100053.78;;;15.20;100.00
17525;BME280;40431;52.198;9.902;2023-09-19T06:05:44;100052.50;;;15.25;100.00
17525;BME280;40431;52.198;9.902;2023-09-19T06:08:11;100057.13;;;15.24;100.00
17525;BME280;40431;52.198;9.902;2023-09-19T06:10:37;100060.72;;;15.25;100.00
17525;BME280;40431;52.198;9.902;2023-09-19T06:13:04;100058.19;;;15.33;100.00
17525;BME280;40431;52.198;9.902;2023-09-19T06:15:31;100072.16;;;15.40;100.00
17525;BME280;40431;52.198;9.902;2023-09-19T06:18:00;100065.50;;;15.32;100.00
17525;BME280;40431;52.198;9.902;2023-09-19T06:20:29;100056.13;;;15.25;100.00
17525;BME280;40431;52.198;9.902;2023-09-19T06:22:56;100075.09;;;15.27;100.00
17525;BME280;40431;52.198;9.902;2023-09-19T06:25:23;100076.56;;;15.31;100.00
17525;BME280;40431;52.198;9.902;2023-09-19T06:27:50;100075.56;;;15.32;100.00
17525;BME280;40431;52.198;9.902;2023-09-19T06:30:19;100070.28;;;15.40;100.00
17525;BME280;40431;52.198;9.902;2023-09-19T06:32:46;100075.75;;;15.40;100.00
17525;BME280;40431;52.198;9.902;2023-09-19T06:35:14;100076.88;;;15.38;100.00
17525;BME280;40431;52.198;9.902;2023-09-19T06:37:43;100072.88;;;15.42;100.00
17525;BME280;40431;52.198;9.902;2023-09-19T06:40:10;100084.13;;;15.48;100.00
17525;BME280;40431;52.198;9.902;2023-09-19T06:42:40;100073.50;;;15.55;100.00
17525;BME280;40431;52.198;9.902;2023-09-19T06:45:07;100071.66;;;15.56;99.71
17525;BME280;40431;52.198;9.902;2023-09-19T06:47:36;100072.66;;;15.55;99.45
17525;BME280;40431;52.198;9.902;2023-09-19T06:50:03;100068.03;;;15.55;99.15
17525;BME280;40431;52.198;9.902;2023-09-19T06:52:31;100069.91;;;15.55;99.09
17525;BME280;40431;52.198;9.902;2023-09-19T06:54:59;100060.84;;;15.54;100.00
17525;BME280;40431;52.198;9.902;2023-09-19T06:57:28;100062.44;;;15.57;99.42
17525;BME280;40431;52.198;9.902;2023-09-19T06:59:55;100059.16;;;15.63;99.14
17525;BME280;40431;52.198;9.902;2023-09-19T07:02:22;100062.47;;;15.66;98.69
17525;BME280;40431;52.198;9.902;2023-09-19T07:04:48;100061.75;;;15.64;97.16
17525;BME280;40431;52.198;9.902;2023-09-19T07:07:15;100069.53;;;15.69;97.86
17525;BME280;40431;52.198;9.902;2023-09-19T07:09:42;100076.44;;;15.73;98.20
17525;BME280;40431;52.198;9.902;2023-09-19T07:12:09;100087.59;;;15.81;99.19
17525;BME280;40431;52.198;9.902;2023-09-19T07:14:37;100087.44;;;15.83;97.58
17525;BME280;40431;52.198;9.902;2023-09-19T07:17:03;100098.97;;;15.96;97.10
17525;BME280;40431;52.198;9.902;2023-09-19T07:19:30;100096.00;;;15.99;96.26
17525;BME280;40431;52.198;9.902;2023-09-19T07:21:56;100101.03;;;16.04;94.72
17525;BME280;40431;52.198;9.902;2023-09-19T07:24:24;100090.25;;;16.12;94.90
17525;BME280;40431;52.198;9.902;2023-09-19T07:26:52;100082.19;;;16.20;94.21
17525;BME280;40431;52.198;9.902;2023-09-19T07:29:20;100097.59;;;16.22;93.54
17525;BME280;40431;52.198;9.902;2023-09-19T07:31:46;100088.09;;;16.26;90.71
17525;BME280;40431;52.198;9.902;2023-09-19T07:34:13;100099.19;;;16.34;91.71
17525;BME280;40431;52.198;9.902;2023-09-19T07:36:40;100095.91;;;16.30;89.81
17525;BME280;40431;52.198;9.902;2023-09-19T07:39:07;100098.78;;;16.29;90.15
17525;BME280;40431;52.198;9.902;2023-09-19T07:41:34;100103.81;;;16.24;89.64
17525;BME280;40431;52.198;9.902;2023-09-19T07:44:00;100103.06;;;16.22;89.47
17525;BME280;40431;52.198;9.902;2023-09-19T07:46:28;100115.31;;;16.27;90.41
17525;BME280;40431;52.198;9.902;2023-09-19T07:48:56;100117.19;;;16.27;89.84
17525;BME280;40431;52.198;9.902;2023-09-19T07:51:22;100123.94;;;16.23;86.89
17525;BME280;40431;52.198;9.902;2023-09-19T07:53:49;100124.53;;;16.26;87.58
17525;BME280;40431;52.198;9.902;2023-09-19T07:56:16;100112.88;;;16.34;88.70
17525;BME280;40431;52.198;9.902;2023-09-19T07:58:44;100129.56;;;16.31;88.45
17525;BME280;40431;52.198;9.902;2023-09-19T08:01:11;100122.66;;;16.27;88.12
17525;BME280;40431;52.198;9.902;2023-09-19T08:03:40;100131.59;;;16.29;88.71
17525;BME280;40431;52.198;9.902;2023-09-19T08:06:07;100130.47;;;16.31;88.53
17525;BME280;40431;52.198;9.902;2023-09-19T08:08:34;100127.00;;;16.29;87.31
17525;BME280;40431;52.198;9.902;2023-09-19T08:11:03;100121.53;;;16.29;87.76
17525;BME280;40431;52.198;9.902;2023-09-19T08:13:35;100128.03;;;16.38;87.51
17525;BME280;40431;52.198;9.902;2023-09-19T08:16:03;100125.56;;;16.35;87.95
17525;BME280;40431;52.198;9.902;2023-09-19T08:18:30;100118.66;;;16.41;86.74
17525;BME280;40431;52.198;9.902;2023-09-19T08:20:57;100114.91;;;16.42;85.48
17525;BME280;40431;52.198;9.902;2023-09-19T08:23:25;100134.78;;;16.44;85.64
17525;BME280;40431;52.198;9.902;2023-09-19T08:25:56;100117.78;;;16.40;85.81
17525;BME280;40431;52.198;9.902;2023-09-19T08:28:23;100112.91;;;16.44;83.99
17525;BME280;40431;52.198;9.902;2023-09-19T08:30:49;100120.97;;;16.55;84.53
17525;BME280;40431;52.198;9.902;2023-09-19T08:33:16;100124.41;;;16.67;84.19
17525;BME280;40431;52.198;9.902;2023-09-19T08:35:42;100122.84;;;16.74;83.36
17525;BME280;40431;52.198;9.902;2023-09-19T08:38:11;100132.22;;;16.81;83.44
17525;BME280;40431;52.198;9.902;2023-09-19T08:40:39;100133.66;;;16.85;81.02
17525;BME280;40431;52.198;9.902;2023-09-19T08:43:08;100128.91;;;16.97;81.75
17525;BME280;40431;52.198;9.902;2023-09-19T08:45:35;100128.66;;;17.00;81.51
17525;BME280;40431;52.198;9.902;2023-09-19T08:48:15;100124.72;;;17.13;82.67
17525;BME280;40431;52.198;9.902;2023-09-19T08:50:46;100135.38;;;17.26;83.25
17525;BME280;40431;52.198;9.902;2023-09-19T08:53:21;100122.38;;;17.28;80.50
17525;BME280;40431;52.198;9.902;2023-09-19T08:55:50;100129.28;;;17.32;80.19
17525;BME280;40431;52.198;9.902;2023-09-19T08:58:20;100130.84;;;17.44;81.34
17525;BME280;40431;52.198;9.902;2023-09-19T09:00:48;100137.63;;;17.40;80.27
17525;BME280;40431;52.198;9.902;2023-09-19T09:03:17;100129.81;;;17.45;80.19
17525;BME280;40431;52.198;9.902;2023-09-19T09:05:46;100134.16;;;17.48;78.72
17525;BME280;40431;52.198;9.902;2023-09-19T09:08:13;100139.94;;;17.45;77.68
17525;BME280;40431;52.198;9.902;2023-09-19T09:10:44;100140.50;;;17.48;77.92
17525;BME280;40431;52.198;9.902;2023-09-19T09:13:10;100141.63;;;17.56;79.62
17525;BME280;40431;52.198;9.902;2023-09-19T09:15:40;100133.56;;;17.44;77.76
17525;BME280;40431;52.198;9.902;2023-09-19T09:18:10;100139.06;;;17.44;77.67
17525;BME280;40431;52.198;9.902;2023-09-19T09:20:36;100137.34;;;17.43;77.67
17525;BME280;40431;52.198;9.902;2023-09-19T09:23:03;100134.19;;;17.38;77.13
17525;BME280;40431;52.198;9.902;2023-09-19T09:25:53;100133.75;;;17.33;76.38
17525;BME280;40431;52.198;9.902;2023-09-19T09:28:23;100140.25;;;17.42;78.63
17525;BME280;40431;52.198;9.902;2023-09-19T09:30:49;100134.41;;;17.55;80.06
17525;BME280;40431;52.198;9.902;2023-09-19T09:33:16;100139.88;;;17.64;80.31
17525;BME280;40431;52.198;9.902;2023-09-19T09:35:48;100136.50;;;17.80;78.99
17525;BME280;40431;52.198;9.902;2023-09-19T09:38:17;100135.19;;;17.84;76.68
17525;BME280;40431;52.198;9.902;2023-09-19T09:40:48;100134.88;;;17.88;76.80
17525;BME280;40431;52.198;9.902;2023-09-19T09:43:28;100136.72;;;17.97;77.38
17525;BME280;40431;52.198;9.902;2023-09-19T09:46:06;100142.94;;;17.99;75.10
17525;BME280;40431;52.198;9.902;2023-09-19T09:48:36;100138.31;;;17.99;75.70
17525;BME280;40431;52.198;9.902;2023-09-19T09:51:04;100138.56;;;18.06;75.95
17525;BME280;40431;52.198;9.902;2023-09-19T09:53:33;100139.72;;;18.03;75.68
17525;BME280;40431;52.198;9.902;2023-09-19T09:56:01;100143.53;;;17.93;74.87
17525;BME280;40431;52.198;9.902;2023-09-19T09:58:32;100150.59;;;17.85;75.61
17525;BME280;40431;52.198;9.902;2023-09-19T10:01:00;100150.50;;;17.77;75.93
17525;BME280;40431;52.198;9.902;2023-09-19T10:03:35;100159.88;;;17.84;78.71
17525;BME280;40431;52.198;9.902;2023-09-19T10:06:06;100148.03;;;17.94;77.35
17525;BME280;40431;52.198;9.902;2023-09-19T10:09:00;100145.78;;;18.07;78.83
17525;BME280;40431;52.198;9.902;2023-09-19T10:11:39;100147.19;;;18.11;76.72
17525;BME280;40431;52.198;9.902;2023-09-19T10:14:10;100154.53;;;18.21;76.38
17525;BME280;40431;52.198;9.902;2023-09-19T10:16:40;100141.13;;;18.17;76.43
17525;BME280;40431;52.198;9.902;2023-09-19T10:19:07;100139.97;;;18.10;75.72
17525;BME280;40431;52.198;9.902;2023-09-19T10:21:36;100143.28;;;18.14;76.84
17525;BME280;40431;52.198;9.902;2023-09-19T10:24:03;100148.63;;;18.15;75.82
17525;BME280;40431;52.198;9.902;2023-09-19T10:26:34;100140.22;;;18.17;76.63
17525;BME280;40431;52.198;9.902;2023-09-19T10:29:02;100143.53;;;18.21;77.56
17525;BME280;40431;52.198;9.902;2023-09-19T10:31:35;100144.72;;;18.36;76.76
17525;BME280;40431;52.198;9.902;2023-09-19T10:34:06;100135.03;;;18.42;75.81
17525;BME280;40431;52.198;9.902;2023-09-19T10:36:36;100142.09;;;18.44;76.14
17525;BME280;40431;52.198;9.902;2023-09-19T10:39:05;100142.53;;;18.40;75.09
17525;BME280;40431;52.198;9.902;2023-09-19T10:41:34;100121.22;;;18.51;75.31
17525;BME280;40431;52.198;9.902;2023-09-19T10:44:03;100137.38;;;18.55;74.61
17525;BME280;40431;52.198;9.902;2023-09-19T10:46:31;100125.72;;;18.52;72.88
17525;BME280;40431;52.198;9.902;2023-09-19T10:49:00;100139.44;;;18.52;73.68
17525;BME280;40431;52.198;9.902;2023-09-19T10:51:29;100123.53;;;18.56;71.73
17525;BME280;40431;52.198;9.902;2023-09-19T10:54:02;100125.72;;;18.52;73.51
17525;BME280;40431;52.198;9.902;2023-09-19T10:56:34;100136.06;;;18.59;72.17
17525;BME280;40431;52.198;9.902;2023-09-19T10:59:06;100129.13;;;18.55;72.23
17525;BME280;40431;52.198;9.902;2023-09-19T11:01:44;100129.25;;;18.63;73.93
17525;BME280;40431;52.198;9.902;2023-09-19T11:04:22;100135.81;;;18.70;73.26
17525;BME280;40431;52.198;9.902;2023-09-19T11:07:00;100134.50;;;18.74;71.60
17525;BME280;40431;52.198;9.902;2023-09-19T11:09:43;100151.59;;;18.86;73.20
17525;BME280;40431;52.198;9.902;2023-09-19T11:12:11;100147.84;;;18.87;72.30
17525;BME280;40431;52.198;9.902;2023-09-19T11:14:41;100135.44;;;18.83;71.43
17525;BME280;40431;52.198;9.902;2023-09-19T11:17:31;100142.41;;;18.77;70.80
17525;BME280;40431;52.198;9.902;2023-09-19T11:20:23;100126.97;;;18.76;70.67
17525;BME280;40431;52.198;9.902;2023-09-19T11:23:21;100134.25;;;18.85;70.73
17525;BME280;40431;52.198;9.902;2023-09-19T11:25:52;100124.97;;;18.86;70.00
17525;BME280;40431;52.198;9.902;2023-09-19T11:28:34;100131.22;;;18.89;70.54
17525;BME280;40431;52.198;9.902;2023-09-19T11:34:43;100129.63;;;18.86;72.58
17525;BME280;40431;52.198;9.902;2023-09-19T11:40:37;100121.06;;;19.07;71.29
17525;BME280;40431;52.198;9.902;2023-09-19T11:43:30;100117.25;;;19.00;70.60
17525;BME280;40431;52.198;9.902;2023-09-19T11:46:08;100121.94;;;19.08;72.52
17525;BME280;40431;52.198;9.902;2023-09-19T11:48:38;100121.84;;;19.17;70.84
17525;BME280;40431;52.198;9.902;2023-09-19T11:51:14;100118.72;;;19.12;69.52
17525;BME280;40431;52.198;9.902;2023-09-19T11:53:47;100121.25;;;19.06;69.40
17525;BME280;40431;52.198;9.902;2023-09-19T11:56:17;100124.84;;;19.06;69.17
17525;BME280;40431;52.198;9.902;2023-09-19T11:58:45;100121.41;;;19.04;68.59
17525;BME280;40431;52.198;9.902;2023-09-19T12:01:14;100120.22;;;19.07;69.00
17525;BME280;40431;52.198;9.902;2023-09-19T12:03:46;100121.69;;;19.01;67.86
17525;BME280;40431;52.198;9.902;2023-09-19T12:06:14;100124.28;;;19.02;67.49
17525;BME280;40431;52.198;9.902;2023-09-19T12:08:42;100114.56;;;19.08;67.51
17525;BME280;40431;52.198;9.902;2023-09-19T12:11:13;100114.94;;;19.13;68.36
17525;BME280;40431;52.198;9.902;2023-09-19T12:13:43;100107.81;;;19.29;67.43
17525;BME280;40431;52.198;9.902;2023-09-19T12:16:14;100127.19;;;19.45;68.63
17525;BME280;40431;52.198;9.902;2023-09-19T12:18:42;100110.84;;;19.44;64.53
17525;BME280;40431;52.198;9.902;2023-09-19T12:21:24;100122.16;;;19.41;64.88
17525;BME280;40431;52.198;9.902;2023-09-19T12:24:06;100116.44;;;19.34;65.08
17525;BME280;40431;52.198;9.902;2023-09-19T12:26:40;100120.56;;;19.30;65.87
17525;BME280;40431;52.198;9.902;2023-09-19T12:29:16;100117.09;;;19.28;64.86
17525;BME280;40431;52.198;9.902;2023-09-19T12:31:54;100125.03;;;19.31;65.46
17525;BME280;40431;52.198;9.902;2023-09-19T12:34:26;100121.84;;;19.17;64.51
17525;BME280;40431;52.198;9.902;2023-09-19T12:37:07;100129.06;;;19.18;65.37
17525;BME280;40431;52.198;9.902;2023-09-19T12:39:38;100115.16;;;19.20;65.54
17525;BME280;40431;52.198;9.902;2023-09-19T12:42:07;100114.28;;;19.19;64.41
17525;BME280;40431;52.198;9.902;2023-09-19T12:44:36;100118.78;;;19.21;64.72
17525;BME280;40431;52.198;9.902;2023-09-19T12:47:14;100113.66;;;19.26;66.21
17525;BME280;40431;52.198;9.902;2023-09-19T12:50:10;100124.31;;;19.29;66.26
17525;BME280;40431;52.198;9.902;2023-09-19T12:52:43;100114.03;;;19.31;66.09
17525;BME280;40431;52.198;9.902;2023-09-19T12:55:22;100125.59;;;19.34;65.19
17525;BME280;40431;52.198;9.902;2023-09-19T12:57:59;100123.06;;;19.41;64.44
17525;BME280;40431;52.198;9.902;2023-09-19T13:00:35;100118.53;;;19.32;66.17
17525;BME280;40431;52.198;9.902;2023-09-19T13:03:16;100116.84;;;19.39;64.37
17525;BME280;40431;52.198;9.902;2023-09-19T13:05:48;100113.75;;;19.42;64.17
17525;BME280;40431;52.198;9.902;2023-09-19T13:08:20;100124.28;;;19.47;62.87